Time;durP1;ratioP1;P1;durP2;ratioP2;P2;SDS_P1;SDS_P2;PMS_P1;PMS_P2;Temp;Humidity;BMP_temperature;BMP_pressure;BME280_temperature;BME280_humidity;BME280_pressure;Samples;Min_cycle;Max_cycle;Signal;HPM_P1;HPM_P2
2019/10/16 00:00:22;;;;;;;0.9;0.4;;;;;;;;;;;;;
2019/10/16 00:02:47;;;;;;;0.3;0.3;;;;;;;;;;;;;
2019/10/16 00:05:12;;;;;;;0.5;0.4;;;;;;;;;;;;;
2019/10/16 00:07:37;;;;;;;1.4;0.3;;;;;;;;;;;;;
2019/10/16 00:10:02;;;;;;;1;0.4;;;;;;;;;;;;;
2019/10/16 00:12:27;;;;;;;0.5;0.3;;;;;;;;;;;;;
2019/10/16 00:14:52;;;;;;;1;0.4;;;;;;;;;;;;;
2019/10/16 00:17:17;;;;;;;0.4;0.4;;;;;;;;;;;;;
2019/10/16 00:19:42;;;;;;;0.3;0.3;;;;;;;;;;;;;
2019/10/16 00:22:07;;;;;;;1;0.3;;;;;;;;;;;;;
2019/10/16 00:24:32;;;;;;;0.3;0.3;;;;;;;;;;;;;
2019/10/16 00:26:57;;;;;;;0.3;0.3;;;;;;;;;;;;;
2019/10/16 00:29:23;;;;;;;0.4;0.3;;;;;;;;;;;;;
2019/10/16 00:31:48;;;;;;;0.4;0.3;;;;;;;;;;;;;
2019/10/16 00:34:13;;;;;;;0.9;0.4;;;;;;;;;;;;;
2019/10/16 00:36:38;;;;;;;1.1;0.2;;;;;;;;;;;;;
2019/10/16 00:39:03;;;;;;;1;0.4;;;;;;;;;;;;;
2019/10/16 00:41:28;;;;;;;0.3;0.3;;;;;;;;;;;;;
2019/10/16 00:43:53;;;;;;;0.3;0.3;;;;;;;;;;;;;
2019/10/16 00:46:18;;;;;;;1.7;0.3;;;;;;;;;;;;;
2019/10/16 00:48:43;;;;;;;0.4;0.4;;;;;;;;;;;;;
2019/10/16 00:51:08;;;;;;;0.4;0.3;;;;;;;;;;;;;
2019/10/16 00:53:34;;;;;;;0.6;0.4;;;;;;;;;;;;;
2019/10/16 00:55:59;;;;;;;0.5;0.3;;;;;;;;;;;;;
2019/10/16 00:58:24;;;;;;;0.2;0.2;;;;;;;;;;;;;
2019/10/16 01:00:49;;;;;;;0.5;0.3;;;;;;;;;;;;;
2019/10/16 01:03:14;;;;;;;0.7;0.3;;;;;;;;;;;;;
2019/10/16 01:05:48;;;;;;;0.3;0.3;;;;;;;;;;;;;
2019/10/16 01:08:14;;;;;;;1.1;0.5;;;;;;;;;;;;;
2019/10/16 01:10:39;;;;;;;1;0.3;;;;;;;;;;;;;
2019/10/16 01:13:04;;;;;;;0.6;0.4;;;;;;;;;;;;;
2019/10/16 01:15:29;;;;;;;1.1;0.4;;;;;;;;;;;;;
2019/10/16 01:17:54;;;;;;;1.7;0.4;;;;;;;;;;;;;
2019/10/16 01:20:19;;;;;;;1.7;0.4;;;;;;;;;;;;;
2019/10/16 01:22:44;;;;;;;1.6;0.4;;;;;;;;;;;;;
2019/10/16 01:25:09;;;;;;;0.9;0.3;;;;;;;;;;;;;
2019/10/16 01:27:34;;;;;;;1;0.3;;;;;;;;;;;;;
2019/10/16 01:30:00;;;;;;;1.4;0.5;;;;;;;;;;;;;
2019/10/16 01:32:25;;;;;;;1.3;0.3;;;;;;;;;;;;;
2019/10/16 01:34:50;;;;;;;1.5;0.6;;;;;;;;;;;;;
2019/10/16 01:37:15;;;;;;;1.3;0.3;;;;;;;;;;;;;
2019/10/16 01:39:40;;;;;;;1;0.4;;;;;;;;;;;;;
2019/10/16 01:42:05;;;;;;;2;0.5;;;;;;;;;;;;;
2019/10/16 01:44:30;;;;;;;2.6;0.5;;;;;;;;;;;;;
2019/10/16 01:46:55;;;;;;;1.3;0.5;;;;;;;;;;;;;
2019/10/16 01:49:20;;;;;;;0.8;0.3;;;;;;;;;;;;;
2019/10/16 01:51:46;;;;;;;1.5;0.5;;;;;;;;;;;;;
2019/10/16 01:54:11;;;;;;;1.7;0.6;;;;;;;;;;;;;
2019/10/16 01:56:36;;;;;;;1;0.5;;;;;;;;;;;;;
2019/10/16 01:59:01;;;;;;;2.1;0.4;;;;;;;;;;;;;
2019/10/16 02:01:26;;;;;;;1.6;0.4;;;;;;;;;;;;;
2019/10/16 02:03:51;;;;;;;1.3;0.6;;;;;;;;;;;;;
2019/10/16 02:06:16;;;;;;;1.1;0.4;;;;;;;;;;;;;
2019/10/16 02:08:41;;;;;;;1;0.4;;;;;;;;;;;;;
2019/10/16 02:11:07;;;;;;;1.2;0.4;;;;;;;;;;;;;
2019/10/16 02:13:32;;;;;;;2;0.6;;;;;;;;;;;;;
2019/10/16 02:15:57;;;;;;;1.7;0.5;;;;;;;;;;;;;
2019/10/16 02:18:22;;;;;;;1.5;0.4;;;;;;;;;;;;;
2019/10/16 02:20:47;;;;;;;1.5;0.4;;;;;;;;;;;;;
2019/10/16 02:23:12;;;;;;;1.8;0.4;;;;;;;;;;;;;
2019/10/16 02:25:37;;;;;;;2.4;0.4;;;;;;;;;;;;;
2019/10/16 02:28:02;;;;;;;1.3;0.6;;;;;;;;;;;;;
2019/10/16 02:30:27;;;;;;;2.5;0.5;;;;;;;;;;;;;
2019/10/16 02:32:53;;;;;;;0.8;0.5;;;;;;;;;;;;;
2019/10/16 02:35:18;;;;;;;1.4;0.5;;;;;;;;;;;;;
2019/10/16 02:37:43;;;;;;;1.3;0.6;;;;;;;;;;;;;
2019/10/16 02:40:08;;;;;;;2.4;0.7;;;;;;;;;;;;;
2019/10/16 02:42:33;;;;;;;2.5;0.6;;;;;;;;;;;;;
2019/10/16 02:44:58;;;;;;;2.5;0.6;;;;;;;;;;;;;
2019/10/16 02:47:23;;;;;;;2.1;0.7;;;;;;;;;;;;;
2019/10/16 02:49:49;;;;;;;3.6;0.9;;;;;;;;;;;;;
2019/10/16 02:52:14;;;;;;;1.4;0.6;;;;;;;;;;;;;
2019/10/16 02:54:39;;;;;;;1.5;0.7;;;;;;;;;;;;;
2019/10/16 02:57:04;;;;;;;2.1;0.6;;;;;;;;;;;;;
2019/10/16 02:59:29;;;;;;;2.7;0.7;;;;;;;;;;;;;
2019/10/16 03:01:54;;;;;;;3.8;0.8;;;;;;;;;;;;;
2019/10/16 03:04:19;;;;;;;1.3;0.6;;;;;;;;;;;;;
2019/10/16 03:06:44;;;;;;;1.9;0.7;;;;;;;;;;;;;
2019/10/16 03:09:09;;;;;;;3.3;0.8;;;;;;;;;;;;;
2019/10/16 03:11:34;;;;;;;2.3;0.9;;;;;;;;;;;;;
2019/10/16 03:14:00;;;;;;;1.9;0.8;;;;;;;;;;;;;
2019/10/16 03:16:25;;;;;;;2.2;0.6;;;;;;;;;;;;;
2019/10/16 03:18:50;;;;;;;2.2;0.9;;;;;;;;;;;;;
2019/10/16 03:21:16;;;;;;;2.1;0.7;;;;;;;;;;;;;
2019/10/16 03:23:41;;;;;;;2.2;0.7;;;;;;;;;;;;;
2019/10/16 03:26:06;;;;;;;1.9;0.7;;;;;;;;;;;;;
2019/10/16 03:28:31;;;;;;;2.1;0.7;;;;;;;;;;;;;
2019/10/16 03:30:56;;;;;;;3.7;0.9;;;;;;;;;;;;;
2019/10/16 03:33:21;;;;;;;1.9;0.8;;;;;;;;;;;;;
2019/10/16 03:35:46;;;;;;;2.8;0.8;;;;;;;;;;;;;
2019/10/16 03:38:11;;;;;;;2.4;0.6;;;;;;;;;;;;;
2019/10/16 03:40:36;;;;;;;4.3;0.9;;;;;;;;;;;;;
2019/10/16 03:43:01;;;;;;;1.7;0.8;;;;;;;;;;;;;
2019/10/16 03:45:26;;;;;;;2.5;0.8;;;;;;;;;;;;;
2019/10/16 03:47:51;;;;;;;2.8;0.7;;;;;;;;;;;;;
2019/10/16 03:50:17;;;;;;;2;0.7;;;;;;;;;;;;;
2019/10/16 03:52:42;;;;;;;3.2;0.8;;;;;;;;;;;;;
2019/10/16 03:55:07;;;;;;;2;0.8;;;;;;;;;;;;;
2019/10/16 03:57:32;;;;;;;2.4;0.7;;;;;;;;;;;;;
2019/10/16 03:59:57;;;;;;;4.3;1;;;;;;;;;;;;;
2019/10/16 04:02:27;;;;;;;3.6;0.8;;;;;;;10.99;85.67676;959.251;;;;
2019/10/16 04:04:52;;;;;;;2.9;1;;;;;;;10.79;86.0293;959.2516;;;;
2019/10/16 04:07:17;;;;;;;3.1;0.9;;;;;;;10.75;86.46973;959.2966;;;;
2019/10/16 04:09:42;;;;;;;2.5;0.9;;;;;;;10.87;85.60742;959.3117;;;;
2019/10/16 04:12:07;;;;;;;2.9;0.9;;;;;;;10.7;86.21875;959.2614;;;;
2019/10/16 04:14:32;;;;;;;3.8;1.2;;;;;;;10.75;86.06641;959.3358;;;;
2019/10/16 04:16:57;;;;;;;3.9;0.9;;;;;;;10.65;86.47266;959.3096;;;;
2019/10/16 04:19:23;;;;;;;3.4;1;;;;;;;10.57;86.82617;959.3618;;;;
2019/10/16 04:21:47;;;;;;;3.6;1;;;;;;;10.46;86.97363;959.2757;;;;
2019/10/16 04:24:12;;;;;;;4.1;1;;;;;;;10.44;87.01855;959.2967;;;;
2019/10/16 04:26:37;;;;;;;3.8;1.2;;;;;;;10.54;86.72559;959.2528;;;;
2019/10/16 04:29:02;;;;;;;4.1;1;;;;;;;10.56;86.06348;959.3002;;;;
2019/10/16 04:31:28;;;;;;;2.1;0.9;;;;;;;10.53;86.71387;959.3245;;;;
2019/10/16 04:33:53;;;;;;;4.5;1.1;;;;;;;10.4;86.36523;959.3031;;;;
2019/10/16 04:36:18;;;;;;;2.7;1;;;;;;;10.46;86.57129;959.3636;;;;
2019/10/16 04:38:43;;;;;;;3.8;1.1;;;;;;;10.52;85.98535;959.3681;;;;
2019/10/16 04:41:08;;;;;;;3.4;1.1;;;;;;;10.39;86.11035;959.3364;;;;
2019/10/16 04:43:33;;;;;;;4.3;1;;;;;;;10.44;85.85645;959.4059;;;;
2019/10/16 04:45:58;;;;;;;3.3;1.1;;;;;;;10.52;86.27441;959.4422;;;;
2019/10/16 04:48:23;;;;;;;3.5;0.8;;;;;;;10.64;85.07813;959.4387;;;;
2019/10/16 04:50:48;;;;;;;3.9;1;;;;;;;10.6;84.54004;959.4576;;;;
2019/10/16 04:53:13;;;;;;;4;1;;;;;;;10.5;84.68164;959.4445;;;;
2019/10/16 04:55:38;;;;;;;3.7;1;;;;;;;10.52;84.99609;959.4594;;;;
2019/10/16 04:58:04;;;;;;;2.6;0.9;;;;;;;10.65;84.14746;959.4644;;;;
2019/10/16 05:00:29;;;;;;;3.6;1.1;;;;;;;10.65;83.83691;959.4355;;;;
2019/10/16 05:02:54;;;;;;;4.2;1.1;;;;;;;10.62;83.91016;959.4562;;;;
2019/10/16 05:05:19;;;;;;;4.2;1.1;;;;;;;10.47;84.48242;959.4603;;;;
2019/10/16 05:07:44;;;;;;;3.4;1.1;;;;;;;10.56;83.98047;959.4539;;;;
2019/10/16 05:10:09;;;;;;;2.9;1.1;;;;;;;10.43;84.71387;959.4177;;;;
2019/10/16 05:12:34;;;;;;;5;1.1;;;;;;;10.34;84.58301;959.4331;;;;
2019/10/16 05:15:00;;;;;;;2.9;0.9;;;;;;;10.42;84.02148;959.4763;;;;
2019/10/16 05:17:25;;;;;;;5.1;1.2;;;;;;;10.54;83.65234;959.5559;;;;
2019/10/16 05:19:50;;;;;;;3.8;1.1;;;;;;;10.59;83.30664;959.4666;;;;
2019/10/16 05:22:15;;;;;;;4.8;1.1;;;;;;;10.53;83.60645;959.5681;;;;
2019/10/16 05:24:41;;;;;;;4.2;1;;;;;;;10.63;83.00391;959.5544;;;;
2019/10/16 05:27:06;;;;;;;5.5;1.4;;;;;;;10.5;83.46191;959.5798;;;;
2019/10/16 05:29:31;;;;;;;5.3;1.2;;;;;;;10.58;83.00684;959.5844;;;;
2019/10/16 05:31:56;;;;;;;5.8;1.2;;;;;;;10.59;82.77734;959.5986;;;;
2019/10/16 05:34:22;;;;;;;5.8;1.2;;;;;;;10.56;83.16309;959.6127;;;;
2019/10/16 05:36:46;;;;;;;4.8;1;;;;;;;10.59;83.18164;959.6589;;;;
2019/10/16 05:39:12;;;;;;;5.9;1.4;;;;;;;10.58;82.74219;959.6886;;;;
2019/10/16 05:41:37;;;;;;;3.3;1.1;;;;;;;10.67;83.12598;959.7294;;;;
2019/10/16 05:44:02;;;;;;;2.9;1;;;;;;;10.67;82.5625;959.7213;;;;
2019/10/16 05:46:27;;;;;;;3.6;1.2;;;;;;;10.76;82.45215;959.7506;;;;
2019/10/16 05:48:52;;;;;;;4.9;1.2;;;;;;;10.73;82.35547;959.7542;;;;
2019/10/16 05:51:17;;;;;;;5.5;1.4;;;;;;;10.66;82.5166;959.8239;;;;
2019/10/16 05:53:42;;;;;;;4.9;1.2;;;;;;;10.63;82.88867;959.8169;;;;
2019/10/16 05:56:07;;;;;;;4.3;1.5;;;;;;;10.69;82.625;959.9695;;;;
2019/10/16 05:58:32;;;;;;;5.4;1.1;;;;;;;10.76;82.84375;959.9797;;;;
2019/10/16 06:00:58;;;;;;;3.6;1;;;;;;;10.64;82.67188;960.0467;;;;
2019/10/16 06:03:23;;;;;;;4.2;1.1;;;;;;;10.68;82.47363;960.0787;;;;
2019/10/16 06:05:49;;;;;;;5.6;1.4;;;;;;;10.65;82.88086;960.14;;;;
2019/10/16 06:08:14;;;;;;;5;1.2;;;;;;;10.85;82.37793;960.217;;;;
2019/10/16 06:10:40;;;;;;;4.9;1.2;;;;;;;10.72;83.2168;960.2742;;;;
2019/10/16 06:13:05;;;;;;;5.7;1.2;;;;;;;10.79;82.81641;960.2991;;;;
2019/10/16 06:15:30;;;;;;;5;1.2;;;;;;;10.68;83.03711;960.3378;;;;
2019/10/16 06:17:55;;;;;;;3.8;0.9;;;;;;;10.65;83.13477;960.319;;;;
2019/10/16 06:20:21;;;;;;;3.3;1;;;;;;;10.62;83.33594;960.3522;;;;
2019/10/16 06:22:46;;;;;;;4.6;1.2;;;;;;;10.54;84.06738;960.4278;;;;
2019/10/16 06:25:20;;;;;;;4.4;1;;;;;;;10.68;84.01465;960.4313;;;;
2019/10/16 06:27:45;;;;;;;4.5;1.4;;;;;;;10.7;83.36328;960.4448;;;;
2019/10/16 06:30:10;;;;;;;6.3;1.4;;;;;;;10.63;83.70801;960.4321;;;;
2019/10/16 06:32:36;;;;;;;4.3;1.1;;;;;;;10.58;83.60352;960.4309;;;;
2019/10/16 06:35:01;;;;;;;6.7;1.5;;;;;;;10.61;83.54199;960.4593;;;;
2019/10/16 06:37:26;;;;;;;3.6;1.2;;;;;;;10.66;83.24121;960.48;;;;
2019/10/16 06:39:51;;;;;;;5.2;1.2;;;;;;;10.6;82.96484;960.4828;;;;
2019/10/16 06:42:16;;;;;;;7.4;1.4;;;;;;;10.59;83.25098;960.5129;;;;
2019/10/16 06:44:41;;;;;;;5.1;1.1;;;;;;;10.6;82.73242;960.5374;;;;
2019/10/16 06:47:06;;;;;;;2.6;1.1;;;;;;;10.73;82.59863;960.5636;;;;
2019/10/16 06:49:31;;;;;;;5.4;1.1;;;;;;;10.71;81.91406;960.5659;;;;
2019/10/16 06:51:56;;;;;;;2.7;1.1;;;;;;;10.84;81.69824;960.5472;;;;
2019/10/16 06:54:21;;;;;;;3.8;1.2;;;;;;;10.94;81.28906;960.5905;;;;
2019/10/16 06:56:46;;;;;;;3.6;1.2;;;;;;;11.02;80.21094;960.6827;;;;
2019/10/16 06:59:12;;;;;;;5.4;2.5;;;;;;;10.96;80.1416;960.6872;;;;
2019/10/16 07:01:37;;;;;;;5.7;1.3;;;;;;;11.01;79.98926;960.6597;;;;
2019/10/16 07:04:02;;;;;;;3.2;1;;;;;;;11.16;79.49805;960.6719;;;;
2019/10/16 07:06:27;;;;;;;5;1.7;;;;;;;11.22;79.11621;960.7766;;;;
2019/10/16 07:08:52;;;;;;;3.8;1.2;;;;;;;11.02;79.11523;960.805;;;;
2019/10/16 07:11:17;;;;;;;4.7;2;;;;;;;11.05;79.0625;960.7573;;;;
2019/10/16 07:13:43;;;;;;;4.9;1.3;;;;;;;11.14;78.85938;960.8945;;;;
2019/10/16 07:16:08;;;;;;;3.9;1.5;;;;;;;11.23;78.90039;960.7902;;;;
2019/10/16 07:18:33;;;;;;;5;1.3;;;;;;;11.25;78.75391;960.7433;;;;
2019/10/16 07:20:58;;;;;;;4.9;1.2;;;;;;;11.21;78.5166;960.7717;;;;
2019/10/16 07:23:24;;;;;;;2.9;1.1;;;;;;;11.19;78.28125;960.854;;;;
2019/10/16 07:25:49;;;;;;;4.4;1.7;;;;;;;11.23;78.48535;960.7444;;;;
2019/10/16 07:28:14;;;;;;;4.4;1.6;;;;;;;11.37;78.68457;960.7227;;;;
2019/10/16 07:30:39;;;;;;;5.6;1.8;;;;;;;11.42;78.13965;960.7429;;;;
2019/10/16 07:33:04;;;;;;;4.1;1.5;;;;;;;11.46;76.95898;960.7658;;;;
2019/10/16 07:35:29;;;;;;;4.2;1.1;;;;;;;11.34;77.57129;960.7881;;;;
2019/10/16 07:37:54;;;;;;;5.4;1.1;;;;;;;11.33;77.67383;960.7919;;;;
2019/10/16 07:40:19;;;;;;;4.6;1.1;;;;;;;11.41;77.42285;960.7925;;;;
2019/10/16 07:42:55;;;;;;;3.4;1.5;;;;;;;11.61;77.7002;960.8541;;;;
2019/10/16 07:45:20;;;;;;;5.7;1.8;;;;;;;11.64;76.66797;960.9003;;;;
2019/10/16 07:47:45;;;;;;;2.6;1.3;;;;;;;11.69;76.53711;960.8903;;;;
2019/10/16 07:50:10;;;;;;;3.9;1.3;;;;;;;11.71;76.17188;960.872;;;;
2019/10/16 07:52:35;;;;;;;4.4;1.3;;;;;;;11.84;75.95313;960.8185;;;;
2019/10/16 07:55:00;;;;;;;4.3;1.7;;;;;;;11.89;76.30664;960.8597;;;;
2019/10/16 07:57:25;;;;;;;6;1.3;;;;;;;11.95;75.74023;960.8606;;;;
2019/10/16 07:59:50;;;;;;;4.3;1.4;;;;;;;11.99;74.85938;960.8301;;;;
2019/10/16 08:02:15;;;;;;;4.6;1;;;;;;;11.85;74.75195;960.818;;;;
2019/10/16 08:04:40;;;;;;;4.4;1.1;;;;;;;11.97;74.68164;960.8538;;;;
2019/10/16 08:07:05;;;;;;;4.5;1.2;;;;;;;11.92;73.89844;960.8537;;;;
2019/10/16 08:09:30;;;;;;;6.8;1.4;;;;;;;12.07;74.50195;960.856;;;;
2019/10/16 08:11:56;;;;;;;4.9;1;;;;;;;12.03;73.39844;960.8285;;;;
2019/10/16 08:14:21;;;;;;;5.6;1.1;;;;;;;12.06;73.17285;960.8616;;;;
2019/10/16 08:16:46;;;;;;;3.4;1.1;;;;;;;12.26;73.32227;960.9012;;;;
2019/10/16 08:19:11;;;;;;;3.2;1.1;;;;;;;12.18;72.64941;960.7981;;;;
2019/10/16 08:21:36;;;;;;;3.4;1.1;;;;;;;12.12;72.36328;960.8454;;;;
2019/10/16 08:24:01;;;;;;;3.1;1.1;;;;;;;12.35;72.19336;960.8567;;;;
2019/10/16 08:26:26;;;;;;;4.5;1.3;;;;;;;12.41;72.27246;960.9091;;;;
2019/10/16 08:28:51;;;;;;;4.3;1.3;;;;;;;12.41;72.05273;960.8616;;;;
2019/10/16 08:31:17;;;;;;;3.3;1.1;;;;;;;12.54;71.48535;960.8767;;;;
2019/10/16 08:33:42;;;;;;;6.4;1.3;;;;;;;12.52;71.04102;960.8681;;;;
2019/10/16 08:36:07;;;;;;;3.4;1.1;;;;;;;12.52;69.58594;960.9124;;;;
2019/10/16 08:38:33;;;;;;;3.4;1;;;;;;;12.59;69.95605;960.9001;;;;
2019/10/16 08:40:58;;;;;;;3.7;1;;;;;;;12.65;69.82617;960.9622;;;;
2019/10/16 08:43:23;;;;;;;4.9;1.2;;;;;;;12.74;68.84668;960.8696;;;;
2019/10/16 08:45:48;;;;;;;3.3;1.1;;;;;;;12.77;68.51465;960.9604;;;;
2019/10/16 08:48:13;;;;;;;3.2;1;;;;;;;12.71;68.71387;960.8901;;;;
2019/10/16 08:50:38;;;;;;;4.5;1.1;;;;;;;12.73;69.39941;960.7589;;;;
2019/10/16 08:53:04;;;;;;;4.7;1.1;;;;;;;12.83;67.34375;960.8246;;;;
2019/10/16 08:55:29;;;;;;;6.2;1.3;;;;;;;12.87;67.47852;960.8065;;;;
2019/10/16 08:57:54;;;;;;;5.9;1.1;;;;;;;12.93;67.2666;960.7172;;;;
2019/10/16 09:00:20;;;;;;;5.8;1.3;;;;;;;12.91;66.53516;960.712;;;;
2019/10/16 09:02:45;;;;;;;5.5;1.3;;;;;;;12.86;66.06445;960.7244;;;;
2019/10/16 09:05:10;;;;;;;6.3;1.4;;;;;;;12.97;66.10449;960.6914;;;;
2019/10/16 09:07:35;;;;;;;6;1.2;;;;;;;13.06;66.1416;960.6433;;;;
2019/10/16 09:10:00;;;;;;;3.6;1;;;;;;;12.97;66.16309;960.572;;;;
2019/10/16 09:12:26;;;;;;;10.2;1.3;;;;;;;13.17;66.91016;960.5858;;;;
2019/10/16 09:15:05;;;;;;;4.6;1;;;;;;;13.2;65.8623;960.5402;;;;
2019/10/16 09:17:18;;;;;;;5.2;1.4;;;;;;;13.25;64.39844;960.491;;;;
2019/10/16 09:19:41;;;;;;;3.4;1;;;;;;;13.41;64.1084;960.5639;;;;
2019/10/16 09:22:06;;;;;;;6.1;1.2;;;;;;;13.37;63.18945;960.5219;;;;
2019/10/16 09:24:31;;;;;;;3.9;1;;;;;;;13.44;64.1377;960.5069;;;;
2019/10/16 09:26:56;;;;;;;3.8;0.9;;;;;;;13.36;63.44141;960.5952;;;;
2019/10/16 09:29:21;;;;;;;3.1;1.3;;;;;;;13.58;63.34668;960.6611;;;;
2019/10/16 09:32:12;;;;;;;3.3;1;;;;;;;13.71;62.79785;960.6657;;;;
2019/10/16 09:34:40;;;;;;;3.8;1.1;;;;;;;13.66;61.37598;960.7364;;;;
2019/10/16 09:37:02;;;;;;;5.8;1.1;;;;;;;13.69;62.04102;960.7178;;;;
2019/10/16 09:39:27;;;;;;;5;1.3;;;;;;;13.63;61.23242;960.7689;;;;
2019/10/16 09:41:53;;;;;;;3.9;0.8;;;;;;;13.65;60.15918;960.842;;;;
2019/10/16 09:44:18;;;;;;;3.6;1;;;;;;;13.54;59.36621;960.8139;;;;
2019/10/16 09:46:43;;;;;;;3.4;1;;;;;;;13.55;59.87891;960.793;;;;
2019/10/16 09:49:08;;;;;;;4.9;1.1;;;;;;;13.65;60.20313;960.8069;;;;
2019/10/16 09:51:33;;;;;;;3.7;1.1;;;;;;;13.53;60.68652;960.8197;;;;
2019/10/16 09:53:58;;;;;;;4.4;1.1;;;;;;;13.54;59.875;960.8131;;;;
2019/10/16 09:56:24;;;;;;;5;1.1;;;;;;;13.55;60.84961;960.7123;;;;
2019/10/16 09:58:49;;;;;;;3.5;0.9;;;;;;;13.39;61.2207;960.7568;;;;
2019/10/16 10:01:14;;;;;;;4.4;1;;;;;;;13.56;60.30762;960.7929;;;;
2019/10/16 10:03:39;;;;;;;4.1;1.2;;;;;;;13.59;60.7168;960.7997;;;;
2019/10/16 10:06:04;;;;;;;4.6;1.2;;;;;;;13.43;61.07715;960.7787;;;;
2019/10/16 10:08:30;;;;;;;4.3;1.3;;;;;;;13.44;60.97363;960.8098;;;;
2019/10/16 10:10:55;;;;;;;4;1.1;;;;;;;13.54;61.39453;960.7787;;;;
2019/10/16 10:13:20;;;;;;;3.7;1.1;;;;;;;13.72;61.28027;960.723;;;;
2019/10/16 10:15:45;;;;;;;3.4;1.1;;;;;;;13.76;61.21777;960.7031;;;;
2019/10/16 10:18:11;;;;;;;4.3;1.2;;;;;;;13.79;60.35059;960.6809;;;;
2019/10/16 10:20:36;;;;;;;3.4;1.1;;;;;;;13.89;60.14453;960.6361;;;;
2019/10/16 10:23:01;;;;;;;5.2;1.1;;;;;;;14.08;60.51855;960.6866;;;;
2019/10/16 10:25:26;;;;;;;4.2;0.9;;;;;;;14.06;60.11035;960.6613;;;;
2019/10/16 10:27:51;;;;;;;4.6;1.1;;;;;;;14.15;59.83301;960.7134;;;;
2019/10/16 10:30:16;;;;;;;3.2;0.9;;;;;;;14.14;60.42285;960.7263;;;;
2019/10/16 10:32:42;;;;;;;3.7;1;;;;;;;14.08;60.66992;960.6512;;;;
2019/10/16 10:35:07;;;;;;;2;0.8;;;;;;;14.03;60.6748;960.62;;;;
2019/10/16 10:37:32;;;;;;;4;1.1;;;;;;;14.23;60.21484;960.6605;;;;
2019/10/16 10:39:58;;;;;;;3.6;1.1;;;;;;;14.36;58.00293;960.6481;;;;
2019/10/16 10:42:23;;;;;;;2.6;1;;;;;;;14.46;57.7041;960.6292;;;;
2019/10/16 10:44:48;;;;;;;3.1;1;;;;;;;14.38;57.58887;960.5966;;;;
2019/10/16 10:47:13;;;;;;;3.8;1.1;;;;;;;14.42;56.4668;960.6356;;;;
2019/10/16 10:49:38;;;;;;;3.3;1.1;;;;;;;14.45;55.7041;960.5973;;;;
2019/10/16 10:52:04;;;;;;;3.8;1.2;;;;;;;14.43;56.39844;960.647;;;;
2019/10/16 10:54:29;;;;;;;3.3;1.3;;;;;;;14.39;56.52148;960.615;;;;
2019/10/16 10:56:54;;;;;;;3.7;1.3;;;;;;;14.56;56.3916;960.5283;;;;
2019/10/16 10:59:19;;;;;;;5.1;1.1;;;;;;;14.46;56.69336;960.6038;;;;
2019/10/16 11:01:45;;;;;;;3.2;1;;;;;;;14.5;57.24316;960.5449;;;;
2019/10/16 11:04:10;;;;;;;4.1;1.1;;;;;;;14.68;55.69922;960.5123;;;;
2019/10/16 11:06:35;;;;;;;6.8;1.2;;;;;;;14.53;54.53027;960.6052;;;;
2019/10/16 11:09:01;;;;;;;4.2;1.1;;;;;;;14.46;55.83398;960.5259;;;;
2019/10/16 11:11:26;;;;;;;4.5;1.5;;;;;;;14.58;56.11523;960.3906;;;;
2019/10/16 11:13:51;;;;;;;3.8;1.2;;;;;;;14.51;56.85059;960.3491;;;;
2019/10/16 11:16:16;;;;;;;3.7;1.3;;;;;;;14.59;56.65332;960.3652;;;;
2019/10/16 11:18:41;;;;;;;4;1.1;;;;;;;14.59;57.03516;960.3562;;;;
2019/10/16 11:21:06;;;;;;;3.6;1.3;;;;;;;14.73;56.97168;960.3881;;;;
2019/10/16 11:23:37;;;;;;;4;1.5;;;;;;;14.62;55.64453;960.3391;;;;
2019/10/16 11:25:57;;;;;;;4;1.3;;;;;;;14.81;55.75;960.3138;;;;
2019/10/16 11:28:22;;;;;;;3.6;1.2;;;;;;;14.92;55.78711;960.2967;;;;
2019/10/16 11:30:47;;;;;;;6;1.5;;;;;;;14.95;55.4082;960.3518;;;;
2019/10/16 11:33:12;;;;;;;2.8;1;;;;;;;14.94;55.12793;960.324;;;;
2019/10/16 11:35:37;;;;;;;4.6;1.3;;;;;;;15.12;55.37109;960.3081;;;;
2019/10/16 11:38:02;;;;;;;4.5;1.3;;;;;;;15.05;56.55957;960.253;;;;
2019/10/16 11:40:27;;;;;;;2.8;1;;;;;;;15.15;54.89746;960.2031;;;;
2019/10/16 11:42:52;;;;;;;4.1;1;;;;;;;15.18;55.2041;960.1605;;;;
2019/10/16 11:45:18;;;;;;;5.8;1.3;;;;;;;15.37;55.7041;960.1197;;;;
2019/10/16 11:47:43;;;;;;;5.6;1.2;;;;;;;15.15;55.0957;960.0528;;;;
2019/10/16 11:50:08;;;;;;;4.1;1.2;;;;;;;15.28;55.56641;960.0341;;;;
2019/10/16 11:52:33;;;;;;;3.6;1.2;;;;;;;15.14;55.24609;960.0751;;;;
2019/10/16 11:54:58;;;;;;;4.7;1.3;;;;;;;15.09;55.00781;960.0165;;;;
2019/10/16 11:57:23;;;;;;;5;1.4;;;;;;;15.06;54.50293;959.9558;;;;
2019/10/16 11:59:48;;;;;;;4;1.2;;;;;;;15.09;55.26367;959.946;;;;
2019/10/16 12:02:13;;;;;;;2.6;1.1;;;;;;;14.96;54.09668;959.8958;;;;
2019/10/16 12:04:38;;;;;;;3.4;1.3;;;;;;;15.05;54.27051;959.804;;;;
2019/10/16 12:07:04;;;;;;;3.9;1;;;;;;;15.16;54.37598;959.8517;;;;
2019/10/16 12:09:29;;;;;;;3.4;1.1;;;;;;;15.28;54.82129;959.8025;;;;
2019/10/16 12:11:54;;;;;;;2.6;0.9;;;;;;;15.16;53.67871;959.7925;;;;
2019/10/16 12:14:20;;;;;;;3.4;1.1;;;;;;;15.21;53.39258;959.7706;;;;
2019/10/16 12:16:45;;;;;;;4.9;1.3;;;;;;;15.41;53.74316;959.7783;;;;
2019/10/16 12:19:10;;;;;;;4;1.2;;;;;;;15.4;53.16016;959.7484;;;;
2019/10/16 12:21:35;;;;;;;2.2;1;;;;;;;15.44;52.97852;959.7274;;;;
2019/10/16 12:24:00;;;;;;;4;1;;;;;;;15.61;53.39648;959.6877;;;;
2019/10/16 12:26:25;;;;;;;3.2;1.1;;;;;;;15.63;52.87402;959.6959;;;;
2019/10/16 12:28:50;;;;;;;2.9;0.9;;;;;;;15.72;53.99121;959.6799;;;;
2019/10/16 12:31:15;;;;;;;2.5;1;;;;;;;15.67;52.80859;959.6655;;;;
2019/10/16 12:33:40;;;;;;;3.4;1;;;;;;;15.78;52.75195;959.6321;;;;
2019/10/16 12:36:06;;;;;;;2;0.9;;;;;;;15.81;52.95313;959.6501;;;;
2019/10/16 12:38:31;;;;;;;4.2;1.1;;;;;;;15.61;51.89355;959.6384;;;;
2019/10/16 12:40:56;;;;;;;4;1.1;;;;;;;15.61;53.13965;959.6129;;;;
2019/10/16 12:43:22;;;;;;;5.3;1.2;;;;;;;15.6;52.44043;959.6639;;;;
2019/10/16 12:45:47;;;;;;;6.4;1.4;;;;;;;15.58;52.82129;959.5999;;;;
2019/10/16 12:48:12;;;;;;;2.7;0.8;;;;;;;15.8;52.26563;959.61;;;;
2019/10/16 12:50:37;;;;;;;2.6;1;;;;;;;15.83;52.07129;959.5508;;;;
2019/10/16 12:53:02;;;;;;;2;0.9;;;;;;;15.83;52.29199;959.4891;;;;
2019/10/16 12:55:27;;;;;;;3;1;;;;;;;15.63;52.44434;959.4634;;;;
2019/10/16 12:57:53;;;;;;;3.7;0.8;;;;;;;15.8;53.26758;959.4998;;;;
2019/10/16 13:00:18;;;;;;;2.8;1;;;;;;;15.78;54.7666;959.5047;;;;
2019/10/16 13:02:43;;;;;;;3.4;1.1;;;;;;;15.78;55.43164;959.5244;;;;
2019/10/16 13:05:09;;;;;;;2.4;1.1;;;;;;;15.74;51.83984;959.5878;;;;
2019/10/16 13:07:34;;;;;;;4.9;0.9;;;;;;;15.7;51.61328;959.56;;;;
2019/10/16 13:09:59;;;;;;;1.4;0.8;;;;;;;15.88;51.72656;959.6031;;;;
2019/10/16 13:12:24;;;;;;;2.8;1.1;;;;;;;16.12;52.07031;959.5615;;;;
2019/10/16 13:14:49;;;;;;;2.4;0.9;;;;;;;16.26;51.51563;959.5776;;;;
2019/10/16 13:17:14;;;;;;;2.2;0.9;;;;;;;16.27;51.13184;959.6111;;;;
2019/10/16 13:19:40;;;;;;;2.5;0.9;;;;;;;16.39;50.70508;959.5485;;;;
2019/10/16 13:22:05;;;;;;;5.7;0.9;;;;;;;16.18;50.55176;959.4708;;;;
2019/10/16 13:24:30;;;;;;;3.6;1.2;;;;;;;16.18;51.05176;959.4906;;;;
2019/10/16 13:26:55;;;;;;;2.3;1;;;;;;;16.07;49.59375;959.5183;;;;
2019/10/16 13:29:20;;;;;;;3.3;1;;;;;;;16.13;50.71973;959.4383;;;;
2019/10/16 13:31:45;;;;;;;4;1.4;;;;;;;15.84;51.93359;959.4141;;;;
2019/10/16 13:34:11;;;;;;;2.8;1;;;;;;;16.16;51.0498;959.4629;;;;
2019/10/16 13:36:36;;;;;;;4.2;1.2;;;;;;;16.19;51.22852;959.4981;;;;
2019/10/16 13:39:01;;;;;;;2.9;1.1;;;;;;;16.28;48.22949;959.488;;;;
2019/10/16 13:41:26;;;;;;;2.3;1;;;;;;;16.14;49.1709;959.4957;;;;
2019/10/16 13:43:51;;;;;;;3;1;;;;;;;16.11;49.22559;959.5452;;;;
2019/10/16 13:46:17;;;;;;;2.4;0.9;;;;;;;16.21;48.1875;959.4897;;;;
2019/10/16 13:48:42;;;;;;;2.7;1;;;;;;;16.18;48.23047;959.5103;;;;
2019/10/16 13:51:07;;;;;;;4;1.2;;;;;;;16.21;48.89941;959.4905;;;;
2019/10/16 13:53:33;;;;;;;2.5;1.2;;;;;;;16.19;48.33691;959.4586;;;;
2019/10/16 13:55:58;;;;;;;2.5;1.1;;;;;;;16.2;48.25684;959.4758;;;;
2019/10/16 13:58:23;;;;;;;2.9;1.2;;;;;;;16.22;47.98926;959.4462;;;;
2019/10/16 14:00:49;;;;;;;2.5;1;;;;;;;16.32;48.51465;959.4425;;;;
2019/10/16 14:03:14;;;;;;;1.5;1;;;;;;;16.34;48.7959;959.4015;;;;
2019/10/16 14:05:39;;;;;;;1.9;0.9;;;;;;;16.33;49.29688;959.3544;;;;
2019/10/16 14:08:05;;;;;;;2.9;1.2;;;;;;;16.4;48.75684;959.3577;;;;
2019/10/16 14:10:30;;;;;;;2.4;1.1;;;;;;;16.34;49.10059;959.3084;;;;
2019/10/16 14:12:55;;;;;;;2.1;1;;;;;;;16.31;48.49121;959.288;;;;
2019/10/16 14:15:21;;;;;;;3.6;1.1;;;;;;;16.26;48.14648;959.2667;;;;
2019/10/16 14:17:46;;;;;;;3.1;0.9;;;;;;;16.4;48.48828;959.2333;;;;
2019/10/16 14:20:11;;;;;;;3.2;1;;;;;;;16.23;50.00781;959.2299;;;;
2019/10/16 14:22:36;;;;;;;2.7;1.1;;;;;;;16.26;49.66309;959.2148;;;;
2019/10/16 14:25:01;;;;;;;2.5;0.9;;;;;;;16.19;49.88672;959.2375;;;;
2019/10/16 14:27:27;;;;;;;3;1.2;;;;;;;16.16;51.01465;959.2278;;;;
2019/10/16 14:29:52;;;;;;;1.7;0.9;;;;;;;16.01;51.85938;959.2528;;;;
2019/10/16 14:32:17;;;;;;;2;1;;;;;;;15.97;51.02734;959.2494;;;;
2019/10/16 14:34:42;;;;;;;1.7;1;;;;;;;15.9;53.44238;959.3237;;;;
2019/10/16 14:37:08;;;;;;;3.8;1.4;;;;;;;16.02;50.36914;959.228;;;;
2019/10/16 14:39:33;;;;;;;3.6;1.3;;;;;;;16.14;50.17285;959.2383;;;;
2019/10/16 14:41:58;;;;;;;1.8;0.9;;;;;;;16.17;49.80469;959.2267;;;;
2019/10/16 14:44:24;;;;;;;3.4;1.1;;;;;;;16.01;53.00098;959.2281;;;;
2019/10/16 14:46:49;;;;;;;2.9;1.3;;;;;;;16.13;51.11621;959.1908;;;;
2019/10/16 14:49:14;;;;;;;4.2;1.1;;;;;;;16.05;51.72461;959.2065;;;;
2019/10/16 14:51:39;;;;;;;2.9;1.1;;;;;;;16.04;52.37598;959.2264;;;;
2019/10/16 14:54:04;;;;;;;4.9;1.1;;;;;;;15.99;51.27441;959.2332;;;;
2019/10/16 14:56:30;;;;;;;3.7;1.3;;;;;;;15.98;52.14746;959.2109;;;;
2019/10/16 14:58:55;;;;;;;3.8;1.1;;;;;;;15.91;52.19824;959.1422;;;;
2019/10/16 15:01:20;;;;;;;3.4;1.1;;;;;;;15.73;52.5498;959.2576;;;;
2019/10/16 15:03:45;;;;;;;3.3;1.3;;;;;;;15.84;51.44434;959.2408;;;;
2019/10/16 15:06:11;;;;;;;2.6;1.2;;;;;;;15.86;52.14551;959.1931;;;;
2019/10/16 15:08:36;;;;;;;3.5;1.2;;;;;;;15.81;51.58008;959.2228;;;;
2019/10/16 15:11:01;;;;;;;2.3;1.1;;;;;;;15.83;54.00488;959.1785;;;;
2019/10/16 15:13:26;;;;;;;3.1;1.2;;;;;;;15.77;53.47363;959.209;;;;
2019/10/16 15:15:51;;;;;;;2.3;1;;;;;;;15.83;52.10645;959.1415;;;;
2019/10/16 15:18:17;;;;;;;3.3;1;;;;;;;15.62;53.41992;959.2007;;;;
2019/10/16 15:20:42;;;;;;;3;1.2;;;;;;;15.73;51.05762;959.162;;;;
2019/10/16 15:23:07;;;;;;;2.7;1.2;;;;;;;15.59;54.03418;959.1383;;;;
2019/10/16 15:25:32;;;;;;;4.6;1.3;;;;;;;15.61;51.91699;959.1892;;;;
2019/10/16 15:27:58;;;;;;;1.8;1;;;;;;;15.78;50.21289;959.1588;;;;
2019/10/16 15:30:23;;;;;;;2;1.2;;;;;;;15.77;50.59668;959.1523;;;;